Flight Briefing for CPX232

Departure Arrival
Phoenix Sky Harbor International Airport (KPHX)
Click to view FAA NOTAMS
Sacramento International Airport (KSMF)
Click to view FAA NOTAMS
Departure Time Arrival Time
N/A N/A
Aircraft Distance
B767-300BDSF 562nm
Departure METAR Arrival METAR
KPHX 180451Z 13006KT 10SM SCT080 11/M02 A2991 RMK AO2 SLP125 T01061017 KSMF 180453Z 31004KT 10SM FEW070 04/02 A3007 RMK AO2 SLP183 T00440017
Suggested Route
ZEPER1 SISIE DOVEE BTY KENNO DONNR SLMMR3


View recent IFR Routes data
Notes



Charts and Procedures

Charts for KPHX
No chart available
Charts for KSMF
No chart available

Ventusky Weather